createdAt,value
2023-04-09T00:01:07.559Z,4.78
2023-04-09T00:03:34.744Z,4.82
2023-04-09T00:06:02.205Z,4.55
2023-04-09T00:08:29.133Z,4.75
2023-04-09T00:10:57.120Z,4.03
2023-04-09T00:13:31.894Z,4.00
2023-04-09T00:16:05.978Z,4.00
2023-04-09T00:18:32.754Z,4.45
2023-04-09T00:20:59.737Z,5.18
2023-04-09T00:23:26.616Z,5.07
2023-04-09T00:25:53.565Z,4.65
2023-04-09T00:28:20.939Z,4.30
2023-04-09T00:30:47.993Z,4.18
2023-04-09T00:33:14.804Z,4.60
2023-04-09T00:35:41.671Z,4.60
2023-04-09T00:38:08.442Z,5.03
2023-04-09T00:40:35.567Z,4.45
2023-04-09T00:43:02.619Z,4.30
2023-04-09T00:45:29.755Z,4.53
2023-04-09T00:47:56.832Z,4.50
2023-04-09T00:50:23.744Z,4.40
2023-04-09T00:52:50.754Z,4.38
2023-04-09T00:55:17.748Z,4.28
2023-04-09T00:57:44.720Z,4.63
2023-04-09T01:00:13.087Z,4.53
2023-04-09T01:02:40.298Z,4.65
2023-04-09T01:05:07.419Z,4.22
2023-04-09T01:08:02.254Z,4.70
2023-04-09T01:10:39.445Z,4.68
2023-04-09T01:13:13.344Z,3.85
2023-04-09T01:15:48.740Z,4.35
2023-04-09T01:18:31.110Z,4.60
2023-04-09T01:20:58.687Z,4.22
2023-04-09T01:23:41.735Z,4.07
2023-04-09T01:26:27.529Z,4.32
2023-04-09T01:28:55.021Z,4.90
2023-04-09T01:31:27.121Z,4.15
2023-04-09T01:33:54.036Z,3.95
2023-04-09T01:36:20.834Z,4.53
2023-04-09T01:38:47.576Z,4.57
2023-04-09T01:41:19.036Z,4.78
2023-04-09T01:43:46.018Z,4.88
2023-04-09T01:46:12.967Z,4.53
2023-04-09T01:48:39.847Z,4.55
2023-04-09T01:51:06.738Z,4.82
2023-04-09T01:53:33.429Z,5.07
2023-04-09T01:56:01.795Z,4.18
2023-04-09T01:58:34.126Z,4.95
2023-04-09T02:01:22.605Z,4.90
2023-04-09T02:03:52.587Z,4.35
2023-04-09T02:06:44.369Z,4.93
2023-04-09T02:09:11.218Z,4.40
2023-04-09T02:11:38.608Z,4.40
2023-04-09T02:14:05.462Z,4.60
2023-04-09T02:16:32.314Z,4.45
2023-04-09T02:19:01.304Z,4.78
2023-04-09T02:21:28.650Z,4.43
2023-04-09T02:23:56.021Z,4.53
2023-04-09T02:26:24.098Z,4.60
2023-04-09T02:28:51.769Z,4.75
2023-04-09T02:31:19.619Z,3.90
2023-04-09T02:33:46.475Z,4.60
2023-04-09T02:36:13.534Z,4.70
2023-04-09T02:38:41.707Z,4.35
2023-04-09T02:41:08.780Z,4.80
2023-04-09T02:43:35.681Z,4.80
2023-04-09T02:46:02.650Z,3.85
2023-04-09T02:48:29.665Z,4.88
2023-04-09T02:50:57.040Z,4.30
2023-04-09T02:53:27.086Z,4.75
2023-04-09T02:55:54.004Z,4.05
2023-04-09T02:58:21.152Z,4.47
2023-04-09T03:00:47.933Z,4.45
2023-04-09T03:03:14.821Z,4.70
2023-04-09T03:05:42.001Z,4.03
2023-04-09T03:08:08.813Z,4.53
2023-04-09T03:10:35.640Z,4.57
2023-04-09T03:13:02.504Z,4.22
2023-04-09T03:15:29.261Z,4.15
2023-04-09T03:17:56.157Z,4.55
2023-04-09T03:20:23.565Z,4.38
2023-04-09T03:22:50.421Z,4.32
2023-04-09T03:25:19.594Z,4.43
2023-04-09T03:27:46.674Z,4.35
2023-04-09T03:30:13.645Z,4.35
2023-04-09T03:32:41.670Z,4.70
2023-04-09T03:35:09.286Z,4.88
2023-04-09T03:37:36.194Z,4.90
2023-04-09T03:40:03.859Z,4.72
2023-04-09T03:42:31.106Z,4.07
2023-04-09T03:44:57.797Z,4.50
2023-04-09T03:47:24.557Z,4.85
2023-04-09T03:49:51.288Z,3.90
2023-04-09T03:52:18.033Z,4.78
2023-04-09T03:54:45.791Z,4.38
2023-04-09T03:57:12.599Z,4.80
2023-04-09T03:59:39.726Z,4.60
2023-04-09T04:02:06.478Z,4.50
2023-04-09T04:04:33.496Z,4.80
2023-04-09T04:07:00.239Z,5.78
2023-04-09T04:09:26.974Z,5.45
2023-04-09T04:11:53.803Z,4.85
2023-04-09T04:14:20.705Z,5.05
2023-04-09T04:16:47.547Z,4.82
2023-04-09T04:19:14.341Z,5.63
2023-04-09T04:21:41.298Z,5.25
2023-04-09T04:24:08.063Z,6.03
2023-04-09T04:26:35.014Z,5.60
2023-04-09T04:29:01.768Z,5.57
2023-04-09T04:31:28.518Z,5.63
2023-04-09T04:33:55.426Z,5.85
2023-04-09T04:36:22.225Z,5.38
2023-04-09T04:38:49.008Z,5.25
2023-04-09T04:41:18.870Z,6.30
2023-04-09T04:43:47.237Z,5.60
2023-04-09T04:46:14.260Z,5.50
2023-04-09T04:48:41.177Z,4.88
2023-04-09T04:51:08.121Z,5.78
2023-04-09T04:53:34.915Z,7.63
2023-04-09T04:56:01.729Z,6.70
2023-04-09T04:58:30.480Z,6.40
2023-04-09T05:00:57.253Z,6.05
2023-04-09T05:03:26.134Z,6.55
2023-04-09T05:05:54.339Z,6.85
2023-04-09T05:08:21.343Z,7.28
2023-04-09T05:10:48.576Z,6.97
2023-04-09T05:13:15.467Z,7.18
2023-04-09T05:15:42.445Z,5.95
2023-04-09T05:18:09.207Z,6.47
2023-04-09T05:20:36.274Z,6.32
2023-04-09T05:23:03.081Z,6.07
2023-04-09T05:25:30.046Z,7.13
2023-04-09T05:27:57.229Z,6.32
2023-04-09T05:30:24.583Z,5.32
2023-04-09T05:32:51.585Z,5.35
2023-04-09T05:35:18.449Z,5.68
2023-04-09T05:37:45.350Z,5.75
2023-04-09T05:40:13.031Z,5.55
2023-04-09T05:42:39.976Z,5.85
2023-04-09T05:45:07.403Z,5.82
2023-04-09T05:47:34.076Z,5.50
2023-04-09T05:50:00.958Z,5.45
2023-04-09T05:52:28.606Z,5.90
2023-04-09T05:54:55.448Z,5.72
2023-04-09T05:57:22.393Z,6.32
2023-04-09T05:59:49.352Z,7.18
2023-04-09T06:02:16.355Z,6.60
2023-04-09T06:04:43.301Z,6.85
2023-04-09T06:07:10.785Z,6.25
2023-04-09T06:09:38.501Z,5.40
2023-04-09T06:12:05.304Z,5.20
2023-04-09T06:14:33.365Z,5.30
2023-04-09T06:17:00.422Z,5.78
2023-04-09T06:19:27.741Z,5.78
2023-04-09T06:21:54.500Z,5.68
2023-04-09T06:24:21.649Z,5.70
2023-04-09T06:26:49.159Z,5.35
2023-04-09T06:29:16.110Z,5.07
2023-04-09T06:31:43.285Z,4.63
2023-04-09T06:34:11.023Z,4.65
2023-04-09T06:36:40.342Z,4.00
2023-04-09T06:39:07.587Z,5.25
2023-04-09T06:41:34.336Z,4.70
2023-04-09T06:44:01.630Z,5.15
2023-04-09T06:46:28.925Z,4.72
2023-04-09T06:48:56.048Z,4.35
2023-04-09T06:51:22.872Z,4.32
2023-04-09T06:53:49.947Z,4.40
2023-04-09T06:56:17.170Z,4.72
2023-04-09T06:58:44.192Z,4.72
2023-04-09T07:01:11.095Z,5.70
2023-04-09T07:03:38.092Z,5.15
2023-04-09T07:06:04.971Z,5.15
2023-04-09T07:08:31.893Z,4.80
2023-04-09T07:10:58.902Z,5.18
2023-04-09T07:13:25.798Z,4.60
2023-04-09T07:15:52.854Z,5.18
2023-04-09T07:18:20.305Z,5.85
2023-04-09T07:20:47.091Z,7.18
2023-04-09T07:23:13.795Z,5.22
2023-04-09T07:25:41.326Z,6.53
2023-04-09T07:28:09.529Z,5.78
2023-04-09T07:30:36.575Z,6.15
2023-04-09T07:33:03.796Z,5.57
2023-04-09T07:35:32.311Z,5.88
2023-04-09T07:37:59.172Z,6.65
2023-04-09T07:40:26.200Z,6.57
2023-04-09T07:42:53.878Z,6.35
2023-04-09T07:45:20.802Z,4.80
2023-04-09T07:47:47.652Z,5.53
2023-04-09T07:50:14.672Z,5.25
2023-04-09T07:52:42.145Z,6.18
2023-04-09T07:55:09.026Z,4.50
2023-04-09T07:57:36.983Z,5.18
2023-04-09T08:00:05.943Z,5.70
2023-04-09T08:02:32.786Z,5.25
2023-04-09T08:04:59.957Z,6.50
2023-04-09T08:07:26.974Z,6.05
2023-04-09T08:09:53.778Z,5.93
2023-04-09T08:12:20.518Z,5.95
2023-04-09T08:14:47.623Z,5.85
2023-04-09T08:17:14.340Z,5.68
2023-04-09T08:19:42.097Z,5.28
2023-04-09T08:22:08.984Z,6.15
2023-04-09T08:24:36.055Z,5.45
2023-04-09T08:27:03.082Z,5.70
2023-04-09T08:29:29.894Z,6.07
2023-04-09T08:31:57.353Z,6.00
2023-04-09T08:34:24.091Z,5.43
2023-04-09T08:36:52.032Z,5.65
2023-04-09T08:39:20.810Z,5.50
2023-04-09T08:41:48.456Z,5.78
2023-04-09T08:44:15.548Z,5.43
2023-04-09T08:46:43.117Z,5.57
2023-04-09T08:49:11.100Z,5.90
2023-04-09T08:51:39.424Z,5.40
2023-04-09T08:54:06.544Z,5.03
2023-04-09T08:56:33.318Z,6.15
2023-04-09T08:59:02.948Z,5.72
2023-04-09T09:01:31.046Z,4.80
2023-04-09T09:04:04.356Z,5.78
2023-04-09T09:06:37.112Z,6.22
2023-04-09T09:09:11.517Z,5.45
2023-04-09T09:11:41.788Z,5.72
2023-04-09T09:14:09.762Z,5.97
2023-04-09T09:16:42.800Z,6.07
2023-04-09T09:19:10.691Z,5.28
2023-04-09T09:21:38.667Z,5.85
2023-04-09T09:24:16.705Z,5.47
2023-04-09T09:26:43.748Z,6.25
2023-04-09T09:29:10.583Z,7.45
2023-04-09T09:31:49.165Z,6.63
2023-04-09T09:34:19.681Z,6.60
2023-04-09T09:36:46.560Z,5.05
2023-04-09T09:39:13.977Z,5.55
2023-04-09T09:41:43.772Z,5.47
2023-04-09T09:44:11.663Z,5.20
2023-04-09T09:46:40.476Z,4.88
2023-04-09T09:49:07.725Z,4.80
2023-04-09T09:51:37.159Z,5.00
2023-04-09T09:54:04.087Z,4.72
2023-04-09T09:56:32.822Z,4.35
2023-04-09T09:59:22.103Z,4.13
2023-04-09T10:01:50.024Z,4.95
2023-04-09T10:04:17.167Z,4.68
2023-04-09T10:06:44.616Z,5.18
2023-04-09T10:09:11.351Z,3.78
2023-04-09T10:11:38.310Z,4.05
2023-04-09T10:14:05.559Z,3.72
2023-04-09T10:16:32.755Z,4.63
2023-04-09T10:18:59.689Z,4.90
2023-04-09T10:21:57.083Z,4.57
2023-04-09T10:24:23.817Z,4.85
2023-04-09T10:26:51.141Z,3.78
2023-04-09T10:29:18.485Z,4.78
2023-04-09T10:31:53.312Z,3.50
2023-04-09T10:34:24.810Z,4.30
2023-04-09T10:36:58.419Z,3.65
2023-04-09T10:39:32.029Z,3.92
2023-04-09T10:41:59.924Z,4.50
2023-04-09T10:44:27.484Z,4.35
2023-04-09T10:46:55.284Z,4.40
2023-04-09T10:49:28.134Z,4.18
2023-04-09T10:52:09.557Z,4.03
2023-04-09T10:54:44.035Z,4.25
2023-04-09T10:59:52.315Z,4.00
2023-04-09T11:02:37.921Z,4.43
2023-04-09T11:05:25.146Z,3.72
2023-04-09T11:08:11.745Z,5.45
2023-04-09T11:10:40.038Z,5.35
2023-04-09T11:13:06.886Z,4.80
2023-04-09T11:15:35.475Z,6.38
2023-04-09T11:18:02.478Z,5.15
2023-04-09T11:20:31.092Z,4.15
2023-04-09T11:22:58.867Z,4.03
2023-04-09T11:25:26.816Z,4.22
2023-04-09T11:27:53.730Z,4.03
2023-04-09T11:30:20.552Z,3.05
2023-04-09T11:32:48.069Z,3.63
2023-04-09T11:35:19.631Z,3.95
2023-04-09T11:37:46.412Z,3.97
2023-04-09T11:40:34.764Z,4.03
2023-04-09T11:43:03.189Z,4.97
2023-04-09T11:45:30.857Z,4.40
2023-04-09T11:47:57.626Z,4.15
2023-04-09T11:50:25.265Z,4.07
2023-04-09T11:52:52.537Z,4.53
2023-04-09T11:55:26.889Z,4.57
2023-04-09T11:57:57.372Z,4.22
2023-04-09T12:00:25.081Z,3.58
2023-04-09T12:02:59.335Z,3.83
2023-04-09T12:05:28.680Z,4.38
2023-04-09T12:08:08.042Z,4.35
2023-04-09T12:10:36.525Z,3.33
2023-04-09T12:13:08.204Z,3.60
2023-04-09T12:15:36.721Z,4.00
2023-04-09T12:18:03.853Z,4.05
2023-04-09T12:20:41.328Z,4.57
2023-04-09T12:23:08.559Z,3.50
2023-04-09T12:25:37.997Z,3.33
2023-04-09T12:28:05.925Z,2.50
2023-04-09T12:30:33.473Z,2.47
2023-04-09T12:33:02.171Z,2.83
2023-04-09T12:35:29.400Z,2.88
2023-04-09T12:37:56.435Z,2.72
2023-04-09T12:40:23.294Z,2.83
2023-04-09T12:42:50.283Z,2.78
2023-04-09T12:45:17.774Z,2.70
2023-04-09T12:47:44.679Z,3.35
2023-04-09T12:50:12.104Z,2.90
2023-04-09T12:52:39.010Z,3.35
2023-04-09T12:55:06.471Z,3.85
2023-04-09T12:57:33.353Z,3.88
2023-04-09T13:00:00.239Z,3.80
2023-04-09T13:02:27.354Z,3.15
2023-04-09T13:04:54.213Z,2.72
2023-04-09T13:07:21.058Z,2.95
2023-04-09T13:09:51.248Z,2.75
2023-04-09T13:12:18.106Z,2.38
2023-04-09T13:14:46.682Z,2.35
2023-04-09T13:17:13.850Z,3.03
2023-04-09T13:19:42.719Z,1.77
2023-04-09T13:22:09.900Z,1.90
2023-04-09T13:24:36.803Z,1.88
2023-04-09T13:27:09.737Z,1.60
2023-04-09T13:29:36.675Z,1.80
2023-04-09T13:32:07.131Z,2.22
2023-04-09T13:34:35.078Z,1.98
2023-04-09T13:37:04.972Z,1.80
2023-04-09T13:39:31.852Z,1.60
2023-04-09T13:41:58.638Z,1.60
2023-04-09T13:44:25.754Z,1.63
2023-04-09T13:46:52.747Z,1.60
2023-04-09T13:49:19.542Z,1.30
2023-04-09T13:51:46.324Z,1.50
2023-04-09T13:54:13.334Z,1.48
2023-04-09T13:56:40.332Z,1.10
2023-04-09T13:59:07.086Z,1.42
2023-04-09T14:01:34.395Z,1.27
2023-04-09T14:04:01.302Z,1.33
2023-04-09T14:06:28.163Z,1.23
2023-04-09T14:08:55.290Z,1.15
2023-04-09T14:11:22.173Z,1.20
2023-04-09T14:13:48.977Z,1.52
2023-04-09T14:16:16.675Z,1.33
2023-04-09T14:18:43.620Z,1.30
2023-04-09T14:21:11.113Z,1.20
2023-04-09T14:23:41.237Z,1.15
2023-04-09T14:26:08.252Z,1.20
2023-04-09T14:28:35.397Z,1.20
2023-04-09T14:31:02.631Z,0.98
2023-04-09T14:33:32.558Z,1.60
2023-04-09T14:35:59.422Z,1.23
2023-04-09T14:38:26.743Z,1.20
2023-04-09T14:40:53.739Z,1.10
2023-04-09T14:43:20.577Z,1.20
2023-04-09T14:45:51.249Z,0.85
2023-04-09T14:48:18.134Z,0.90
2023-04-09T14:50:45.546Z,1.05
2023-04-09T14:53:12.642Z,1.02
2023-04-09T14:55:39.528Z,1.02
2023-04-09T14:58:08.135Z,1.20
2023-04-09T15:00:34.872Z,1.10
2023-04-09T15:03:01.836Z,1.10
2023-04-09T15:05:28.764Z,1.00
2023-04-09T15:07:56.076Z,1.20
2023-04-09T15:10:22.873Z,1.00
2023-04-09T15:12:49.626Z,1.23
2023-04-09T15:15:16.367Z,1.10
2023-04-09T15:17:43.092Z,0.80
2023-04-09T15:20:11.253Z,1.02
2023-04-09T15:22:38.122Z,0.88
2023-04-09T15:25:05.539Z,1.13
2023-04-09T15:27:32.756Z,1.10
2023-04-09T15:29:59.430Z,1.15
2023-04-09T15:32:26.290Z,0.73
2023-04-09T15:34:53.018Z,1.17
2023-04-09T15:37:20.288Z,1.15
2023-04-09T15:39:46.969Z,1.10
2023-04-09T15:42:14.799Z,1.30
2023-04-09T15:44:41.620Z,1.30
2023-04-09T15:47:08.357Z,1.55
2023-04-09T15:49:36.771Z,1.65
2023-04-09T15:52:03.641Z,1.88
2023-04-09T15:54:30.616Z,2.05
2023-04-09T15:56:57.392Z,2.28
2023-04-09T15:59:24.160Z,1.52
2023-04-09T16:01:51.254Z,1.90
2023-04-09T16:04:17.983Z,2.33
2023-04-09T16:06:44.808Z,1.98
2023-04-09T16:09:11.483Z,2.10
2023-04-09T16:11:38.271Z,1.65
2023-04-09T16:14:05.024Z,2.00
2023-04-09T16:16:31.928Z,2.00
2023-04-09T16:18:58.714Z,1.50
2023-04-09T16:21:25.906Z,1.60
2023-04-09T16:23:52.699Z,1.80
2023-04-09T16:26:19.498Z,1.90
2023-04-09T16:28:46.156Z,1.60
2023-04-09T16:31:12.907Z,1.73
2023-04-09T16:33:39.628Z,1.80
2023-04-09T16:36:07.061Z,1.80
2023-04-09T16:38:33.866Z,1.90
2023-04-09T16:41:01.233Z,1.63
2023-04-09T16:43:27.980Z,1.80
2023-04-09T16:45:54.735Z,1.40
2023-04-09T16:48:21.482Z,1.50
2023-04-09T16:50:48.235Z,1.55
2023-04-09T16:53:14.987Z,1.30
2023-04-09T16:55:41.718Z,1.52
2023-04-09T16:58:08.421Z,1.15
2023-04-09T17:00:35.371Z,1.58
2023-04-09T17:03:02.441Z,1.20
2023-04-09T17:05:29.580Z,1.20
2023-04-09T17:07:56.300Z,1.10
2023-04-09T17:10:23.035Z,0.90
2023-04-09T17:12:50.687Z,1.00
2023-04-09T17:15:17.804Z,1.05
2023-04-09T17:17:45.747Z,1.02
2023-04-09T17:20:12.987Z,1.10
2023-04-09T17:22:39.982Z,0.90
2023-04-09T17:25:07.142Z,1.42
2023-04-09T17:27:33.921Z,0.80
2023-04-09T17:30:02.601Z,0.75
2023-04-09T17:32:29.400Z,1.45
2023-04-09T17:34:56.083Z,1.17
2023-04-09T17:37:22.797Z,1.02
2023-04-09T17:39:49.677Z,0.90
2023-04-09T17:42:16.369Z,1.33
2023-04-09T17:44:44.034Z,1.00
2023-04-09T17:47:11.606Z,1.38
2023-04-09T17:49:39.244Z,1.17
2023-04-09T17:52:06.197Z,1.30
2023-04-09T17:54:36.842Z,1.70
2023-04-09T17:57:04.631Z,1.30
2023-04-09T17:59:32.062Z,1.30
2023-04-09T18:01:58.892Z,1.00
2023-04-09T18:04:26.243Z,1.08
2023-04-09T18:06:54.070Z,0.70
2023-04-09T18:09:20.713Z,0.65
2023-04-09T18:11:48.894Z,1.00
2023-04-09T18:14:15.842Z,0.82
2023-04-09T18:16:42.700Z,0.73
2023-04-09T18:19:10.122Z,1.00
2023-04-09T18:21:36.985Z,0.90
2023-04-09T18:24:04.484Z,1.25
2023-04-09T18:26:33.326Z,1.63
2023-04-09T18:29:01.445Z,2.67
2023-04-09T18:31:28.718Z,1.67
2023-04-09T18:33:56.170Z,2.00
2023-04-09T18:36:25.761Z,1.70
2023-04-09T18:38:53.002Z,1.90
2023-04-09T18:41:24.030Z,1.75
2023-04-09T18:43:50.926Z,1.52
2023-04-09T18:46:18.214Z,1.42
2023-04-09T18:48:46.997Z,1.60
2023-04-09T18:51:14.785Z,1.83
2023-04-09T18:53:42.157Z,1.70
2023-04-09T18:56:09.260Z,2.00
2023-04-09T18:58:36.415Z,2.33
2023-04-09T19:01:11.681Z,1.90
2023-04-09T19:03:39.441Z,2.47
2023-04-09T19:06:14.294Z,2.05
2023-04-09T19:08:41.174Z,2.25
2023-04-09T19:11:08.008Z,2.20
2023-04-09T19:13:34.894Z,2.17
2023-04-09T19:16:02.209Z,2.20
2023-04-09T19:18:29.288Z,1.63
2023-04-09T19:20:56.120Z,2.15
2023-04-09T19:23:22.897Z,2.03
2023-04-09T19:25:53.470Z,2.25
2023-04-09T19:28:20.708Z,1.75
2023-04-09T19:30:47.546Z,2.35
2023-04-09T19:33:14.442Z,2.42
2023-04-09T19:35:41.254Z,1.60
2023-04-09T19:38:08.192Z,1.83
2023-04-09T19:40:35.021Z,1.65
2023-04-09T19:43:01.705Z,1.83
2023-04-09T19:45:29.215Z,1.48
2023-04-09T19:47:56.106Z,1.30
2023-04-09T19:50:22.924Z,1.63
2023-04-09T19:52:49.575Z,1.70
2023-04-09T19:55:16.306Z,1.58
2023-04-09T19:57:46.201Z,1.77
2023-04-09T20:00:14.544Z,1.85
2023-04-09T20:02:41.917Z,2.30
2023-04-09T20:05:09.966Z,2.00
2023-04-09T20:07:37.034Z,2.00
2023-04-09T20:10:03.932Z,1.70
2023-04-09T20:12:30.642Z,2.20
2023-04-09T20:14:57.435Z,1.77
2023-04-09T20:17:24.524Z,1.95
2023-04-09T20:19:51.448Z,1.70
2023-04-09T20:22:18.152Z,2.30
2023-04-09T20:24:44.980Z,1.83
2023-04-09T20:27:12.001Z,2.28
2023-04-09T20:29:39.706Z,2.00
2023-04-09T20:32:06.486Z,1.83
2023-04-09T20:34:33.506Z,1.65
2023-04-09T20:37:00.694Z,2.03
2023-04-09T20:39:27.605Z,1.63
2023-04-09T20:41:55.222Z,1.85
2023-04-09T20:44:22.502Z,1.50
2023-04-09T20:46:49.163Z,1.80
2023-04-09T20:49:15.849Z,1.90
2023-04-09T20:51:42.561Z,1.65
2023-04-09T20:54:10.066Z,1.45
2023-04-09T20:56:36.708Z,1.50
2023-04-09T20:59:03.610Z,1.42
2023-04-09T21:01:30.574Z,1.55
2023-04-09T21:03:57.562Z,1.63
2023-04-09T21:06:26.130Z,1.65
2023-04-09T21:08:53.350Z,1.85
2023-04-09T21:11:20.281Z,1.88
2023-04-09T21:13:54.638Z,1.52
2023-04-09T21:16:22.713Z,1.50
2023-04-09T21:18:50.392Z,1.67
2023-04-09T21:21:17.153Z,1.80
2023-04-09T21:23:43.917Z,1.73
2023-04-09T21:26:11.973Z,1.77
2023-04-09T21:28:38.912Z,2.00
2023-04-09T21:31:06.679Z,1.90
2023-04-09T21:33:33.466Z,1.60
2023-04-09T21:36:01.485Z,1.83
2023-04-09T21:38:28.180Z,1.77
2023-04-09T21:40:54.890Z,1.65
2023-04-09T21:43:21.662Z,2.05
2023-04-09T21:45:48.700Z,1.80
2023-04-09T21:48:15.745Z,1.80
2023-04-09T21:50:42.641Z,1.88
2023-04-09T21:53:09.358Z,2.30
2023-04-09T21:55:37.131Z,1.92
2023-04-09T21:58:03.942Z,2.03
2023-04-09T22:00:30.873Z,2.05
2023-04-09T22:03:01.434Z,2.15
2023-04-09T22:05:28.661Z,2.97
2023-04-09T22:07:57.135Z,2.67
2023-04-09T22:10:24.180Z,2.55
2023-04-09T22:12:50.981Z,2.50
2023-04-09T22:15:18.878Z,2.35
2023-04-09T22:17:45.737Z,2.20
2023-04-09T22:20:12.541Z,2.13
2023-04-09T22:22:39.673Z,1.83
2023-04-09T22:25:07.092Z,2.50
2023-04-09T22:27:34.095Z,2.20
2023-04-09T22:30:00.818Z,2.30
2023-04-09T22:32:27.869Z,2.08
2023-04-09T22:34:54.762Z,2.83
2023-04-09T22:37:21.714Z,2.22
2023-04-09T22:39:48.759Z,3.25
2023-04-09T22:42:15.642Z,2.63
2023-04-09T22:44:42.561Z,2.45
2023-04-09T22:47:09.351Z,2.88
2023-04-09T22:49:36.033Z,2.78
2023-04-09T22:52:02.810Z,3.00
2023-04-09T22:54:30.154Z,3.00
2023-04-09T22:56:57.822Z,3.22
2023-04-09T22:59:30.428Z,3.42
2023-04-09T23:02:06.020Z,3.20
2023-04-09T23:04:34.122Z,2.53
2023-04-09T23:07:01.092Z,3.42
2023-04-09T23:09:27.828Z,2.92
2023-04-09T23:11:54.572Z,3.33
2023-04-09T23:14:21.336Z,2.70
2023-04-09T23:16:48.109Z,2.65
2023-04-09T23:19:14.847Z,2.95
2023-04-09T23:21:41.774Z,2.95
2023-04-09T23:24:08.546Z,2.60
2023-04-09T23:26:35.404Z,3.08
2023-04-09T23:29:02.142Z,3.05
2023-04-09T23:31:28.877Z,2.83
2023-04-09T23:33:55.747Z,2.55
2023-04-09T23:36:24.139Z,2.80
2023-04-09T23:38:51.264Z,3.45
2023-04-09T23:41:18.074Z,2.65
2023-04-09T23:43:45.965Z,3.03
2023-04-09T23:46:12.724Z,3.15
2023-04-09T23:48:40.438Z,2.83
2023-04-09T23:51:07.224Z,2.60
2023-04-09T23:53:33.967Z,3.67
2023-04-09T23:56:00.644Z,3.13
2023-04-09T23:58:27.460Z,3.08
